Time;durP1;ratioP1;P1;durP2;ratioP2;P2;SDS_P1;SDS_P2;PMS_P1;PMS_P2;Temp;Humidity;BMP_temperature;BMP_pressure;BME280_temperature;BME280_humidity;BME280_pressure;Samples;Min_cycle;Max_cycle;Signal;HPM_P1;HPM_P2
2022/05/15 00:01:51;;;;;;;;;;;;;;;9.80;71.97;99657.75;5110930;28;19920;-77
2022/05/15 00:04:16;;;;;;;;;;;;;;;9.86;71.73;99664.75;5106566;28;20060;-77
2022/05/15 00:06:42;;;;;;;;;;;;;;;9.91;71.66;99664.69;5103076;28;19920;-77
2022/05/15 00:09:07;;;;;;;;;;;;;;;9.84;71.51;99674.38;5110439;28;20309;-77
2022/05/15 00:11:33;;;;;;;;;;;;;;;9.73;71.69;99668.28;5111454;28;20279;-77
2022/05/15 00:13:58;;;;;;;;;;;;;;;9.73;72.13;99671.03;5110317;28;19920;-77
2022/05/15 00:16:24;;;;;;;;;;;;;;;9.72;71.95;99663.91;5094606;28;19934;-76
2022/05/15 00:18:50;;;;;;;;;;;;;;;9.65;72.05;99668.94;5089931;28;19919;-77
2022/05/15 00:21:16;;;;;;;;;;;;;;;9.59;72.78;99673.69;5094830;28;20332;-77
2022/05/15 00:23:42;;;;;;;;;;;;;;;9.62;72.47;99664.06;5107973;28;20441;-77
2022/05/15 00:26:07;;;;;;;;;;;;;;;9.69;72.65;99672.72;5089810;28;19920;-77
2022/05/15 00:28:33;;;;;;;;;;;;;;;9.55;73.16;99671.88;5098321;28;19920;-77
2022/05/15 00:30:58;;;;;;;;;;;;;;;9.41;74.17;99670.97;5110142;28;20286;-75
2022/05/15 00:33:24;;;;;;;;;;;;;;;9.30;74.07;99671.13;5110027;28;20014;-77
2022/05/15 00:35:50;;;;;;;;;;;;;;;9.15;74.07;99665.88;5090768;28;19926;-76
2022/05/15 00:38:15;;;;;;;;;;;;;;;9.14;75.01;99666.97;5108055;28;20435;-76
2022/05/15 00:40:42;;;;;;;;;;;;;;;9.09;75.13;99658.84;5110345;28;19919;-76
2022/05/15 00:43:26;;;;;;;;;;;;;;;9.07;75.71;99661.88;5109791;28;20626;-76
2022/05/15 00:45:52;;;;;;;;;;;;;;;9.18;75.43;99665.25;5094737;28;20047;-76
2022/05/15 00:48:17;;;;;;;;;;;;;;;9.19;76.22;99663.34;5098154;28;19959;-76
2022/05/15 00:50:43;;;;;;;;;;;;;;;9.12;75.76;99658.25;5098923;28;19971;-77
2022/05/15 00:53:08;;;;;;;;;;;;;;;9.22;76.02;99655.38;5114976;28;19920;-76
2022/05/15 00:55:42;;;;;;;;;;;;;;;9.28;76.11;99656.09;5113446;28;19919;-77
2022/05/15 00:58:09;;;;;;;;;;;;;;;9.28;76.14;99659.66;5096563;28;20462;-76
2022/05/15 01:00:34;;;;;;;;;;;;;;;9.18;75.71;99661.72;5086704;28;19973;-76
2022/05/15 01:03:10;;;;;;;;;;;;;;;9.18;76.81;99665.25;5093486;28;19920;-77
2022/05/15 01:05:37;;;;;;;;;;;;;;;9.06;76.81;99662.19;5112209;28;19919;-77
2022/05/15 01:08:04;;;;;;;;;;;;;;;9.05;76.97;99663.28;5097007;28;20377;-76
2022/05/15 01:10:30;;;;;;;;;;;;;;;8.99;77.56;99661.72;5075880;28;19965;-76
2022/05/15 01:12:58;;;;;;;;;;;;;;;8.87;77.25;99655.88;5093154;28;20057;-76
2022/05/15 01:15:24;;;;;;;;;;;;;;;8.89;78.00;99656.41;5093436;28;19967;-76
2022/05/15 01:17:52;;;;;;;;;;;;;;;8.68;78.30;99661.31;5092911;28;19919;-76
2022/05/15 01:20:19;;;;;;;;;;;;;;;8.57;79.23;99657.06;5127224;27;19934;-76
2022/05/15 01:22:45;;;;;;;;;;;;;;;8.67;79.11;99657.75;5093937;28;19965;-76
2022/05/15 01:25:15;;;;;;;;;;;;;;;8.77;78.73;99665.81;5094382;28;19973;-77
2022/05/15 01:27:46;;;;;;;;;;;;;;;8.59;79.74;99661.13;5096113;28;19919;-76
2022/05/15 01:30:11;;;;;;;;;;;;;;;8.45;79.71;99662.94;5112996;28;19920;-77
2022/05/15 01:32:37;;;;;;;;;;;;;;;8.36;80.21;99662.78;5096200;28;19923;-77
2022/05/15 01:35:03;;;;;;;;;;;;;;;8.39;80.61;99661.38;5096006;28;20010;-76
2022/05/15 01:37:29;;;;;;;;;;;;;;;8.39;80.16;99664.09;5112788;28;19919;-77
2022/05/15 01:39:55;;;;;;;;;;;;;;;8.47;80.02;99663.44;5112652;28;19978;-76
2022/05/15 01:42:20;;;;;;;;;;;;;;;8.44;80.42;99666.78;5113724;28;19923;-75
2022/05/15 01:44:46;;;;;;;;;;;;;;;8.45;80.99;99666.47;5113749;28;20063;-75
2022/05/15 01:47:12;;;;;;;;;;;;;;;8.35;81.27;99663.06;5092179;28;20444;-75
2022/05/15 01:49:38;;;;;;;;;;;;;;;8.25;81.67;99665.88;5075351;28;19920;-75
2022/05/15 01:52:03;;;;;;;;;;;;;;;8.19;81.58;99667.03;5092179;28;19989;-75
2022/05/15 01:54:29;;;;;;;;;;;;;;;8.15;81.23;99667.59;5089375;28;20336;-74
2022/05/15 01:56:54;;;;;;;;;;;;;;;8.13;82.09;99658.06;5092991;28;19985;-75
2022/05/15 01:59:20;;;;;;;;;;;;;;;8.19;81.50;99661.56;5095816;28;19920;-75
2022/05/15 02:01:46;;;;;;;;;;;;;;;8.20;81.46;99658.53;5112370;28;20401;-75
2022/05/15 02:04:11;;;;;;;;;;;;;;;8.24;81.93;99661.50;5112094;28;19942;-75
2022/05/15 02:06:38;;;;;;;;;;;;;;;8.16;81.66;99663.78;5101282;28;19964;-75
2022/05/15 02:09:04;;;;;;;;;;;;;;;8.16;81.71;99657.50;5089608;28;19935;-75
2022/05/15 02:11:29;;;;;;;;;;;;;;;8.22;81.94;99666.44;5075068;28;19920;-75
2022/05/15 02:13:55;;;;;;;;;;;;;;;8.27;81.00;99660.91;5091953;28;19923;-75
2022/05/15 02:16:20;;;;;;;;;;;;;;;8.36;80.59;99670.16;5091850;28;20344;-75
2022/05/15 02:18:46;;;;;;;;;;;;;;;8.29;81.00;99672.38;5092705;28;20394;-75
2022/05/15 02:21:12;;;;;;;;;;;;;;;8.25;80.07;99660.41;5074746;28;19977;-75
2022/05/15 02:23:38;;;;;;;;;;;;;;;8.22;80.48;99663.72;5103102;28;20351;-75
2022/05/15 02:26:04;;;;;;;;;;;;;;;8.24;80.60;99661.50;5091613;28;19920;-76
2022/05/15 02:28:30;;;;;;;;;;;;;;;8.10;79.94;99664.91;5091179;28;19973;-76
2022/05/15 02:30:55;;;;;;;;;;;;;;;7.91;80.06;99666.75;5092729;28;20507;-76
2022/05/15 02:33:21;;;;;;;;;;;;;;;7.79;80.06;99669.03;5125582;27;20410;-76
2022/05/15 02:35:46;;;;;;;;;;;;;;;7.66;80.44;99658.78;5092399;28;20409;-76
2022/05/15 02:38:12;;;;;;;;;;;;;;;7.63;80.84;99660.16;5096631;28;19920;-76
2022/05/15 02:40:38;;;;;;;;;;;;;;;7.67;80.45;99654.94;5091455;28;20102;-76
2022/05/15 02:43:04;;;;;;;;;;;;;;;7.68;81.24;99660.13;5092506;28;20007;-76
2022/05/15 02:45:30;;;;;;;;;;;;;;;7.91;81.06;99661.28;5108666;28;19963;-77
2022/05/15 02:47:55;;;;;;;;;;;;;;;7.97;80.27;99654.66;5112495;28;19927;-76
2022/05/15 02:53:06;;;;;;;;;;;;;;;7.97;80.40;99654.66;5111023;28;20130;-76
2022/05/15 02:55:32;;;;;;;;;;;;;;;7.94;79.74;99660.69;5094403;28;19952;-76
2022/05/15 02:57:58;;;;;;;;;;;;;;;7.85;79.69;99662.44;5111194;28;19927;-75
2022/05/15 03:00:24;;;;;;;;;;;;;;;7.81;80.09;99661.38;5110617;28;20006;-76
2022/05/15 03:02:50;;;;;;;;;;;;;;;7.76;80.14;99670.41;5094239;28;20059;-76
2022/05/15 03:05:16;;;;;;;;;;;;;;;7.85;80.63;99665.16;5111017;28;19946;-76
2022/05/15 03:07:42;;;;;;;;;;;;;;;7.89;80.76;99662.66;5110432;28;19919;-76
2022/05/15 03:10:09;;;;;;;;;;;;;;;7.74;80.81;99663.63;5110967;28;19919;-76
2022/05/15 03:12:34;;;;;;;;;;;;;;;7.62;80.83;99660.44;5110938;28;20305;-76
2022/05/15 03:15:00;;;;;;;;;;;;;;;7.65;81.15;99657.16;5094717;28;19927;-76
2022/05/15 03:17:26;;;;;;;;;;;;;;;7.72;80.73;99654.91;5090502;28;19919;-76
2022/05/15 03:19:51;;;;;;;;;;;;;;;7.73;81.31;99662.00;5090604;28;19919;-76
2022/05/15 03:22:17;;;;;;;;;;;;;;;7.74;81.14;99660.88;5090701;28;19920;-76
2022/05/15 03:24:42;;;;;;;;;;;;;;;7.68;80.71;99664.78;5123935;27;19919;-76
2022/05/15 03:27:08;;;;;;;;;;;;;;;7.72;81.58;99674.00;5090832;28;19924;-76
2022/05/15 03:29:33;;;;;;;;;;;;;;;7.78;81.42;99670.94;5091687;28;19920;-76
2022/05/15 03:31:59;;;;;;;;;;;;;;;7.84;81.45;99666.28;5091914;28;19926;-76
2022/05/15 03:34:24;;;;;;;;;;;;;;;8.00;80.44;99670.50;5124725;27;19955;-76
2022/05/15 03:36:54;;;;;;;;;;;;;;;8.10;80.76;99670.38;5122713;27;19958;-76
2022/05/15 03:39:20;;;;;;;;;;;;;;;8.15;80.70;99666.78;5090374;28;20015;-76
2022/05/15 03:41:46;;;;;;;;;;;;;;;8.07;79.98;99675.63;5091677;28;19919;-76
2022/05/15 03:44:12;;;;;;;;;;;;;;;8.05;80.62;99670.44;5073411;28;19920;-76
2022/05/15 03:46:38;;;;;;;;;;;;;;;8.25;80.48;99676.78;5102648;28;19926;-76
2022/05/15 03:49:04;;;;;;;;;;;;;;;8.36;79.69;99676.44;5093797;28;19916;-76
2022/05/15 03:51:30;;;;;;;;;;;;;;;8.54;79.99;99679.53;5111589;28;19919;-76
2022/05/15 03:53:56;;;;;;;;;;;;;;;8.57;79.56;99679.75;5104936;28;19951;-76
2022/05/15 03:56:49;;;;;;;;;;;;;;;8.50;78.79;99678.47;5090368;28;19922;-76
2022/05/15 03:59:07;;;;;;;;;;;;;;;8.53;78.57;99678.72;5091353;28;19924;-76
2022/05/15 04:01:32;;;;;;;;;;;;;;;8.58;79.40;99686.84;5090487;28;19927;-76
2022/05/15 04:03:59;;;;;;;;;;;;;;;8.47;78.83;99682.59;5099959;28;19919;-76
2022/05/15 04:06:24;;;;;;;;;;;;;;;8.52;78.62;99676.28;5097505;28;19920;-76
2022/05/15 04:08:51;;;;;;;;;;;;;;;8.59;79.20;99682.19;5091342;28;20002;-76
2022/05/15 04:11:17;;;;;;;;;;;;;;;8.62;78.83;99687.88;5092842;28;19946;-76
2022/05/15 04:13:43;;;;;;;;;;;;;;;8.52;78.56;99682.56;5123865;28;19920;-76
2022/05/15 04:16:09;;;;;;;;;;;;;;;8.42;78.88;99682.66;5124308;28;19926;-76
2022/05/15 04:18:35;;;;;;;;;;;;;;;8.36;79.21;99697.50;5123894;28;19926;-76
2022/05/15 04:21:01;;;;;;;;;;;;;;;8.31;78.71;99694.75;5091656;28;20309;-76
2022/05/15 04:23:27;;;;;;;;;;;;;;;8.34;79.41;99689.59;5112649;28;20397;-76
2022/05/15 04:25:52;;;;;;;;;;;;;;;8.45;79.50;99690.28;5093734;28;19919;-75
2022/05/15 04:28:18;;;;;;;;;;;;;;;8.44;79.52;99691.38;5093672;28;19920;-76
2022/05/15 04:30:43;;;;;;;;;;;;;;;8.50;78.64;99697.59;5100810;28;19920;-76
2022/05/15 04:33:08;;;;;;;;;;;;;;;8.57;78.87;99707.09;5095004;28;19926;-76
2022/05/15 04:35:34;;;;;;;;;;;;;;;8.72;79.24;99708.84;5095068;28;20351;-76
2022/05/15 04:37:59;;;;;;;;;;;;;;;8.70;78.01;99706.41;5095044;28;20394;-76
2022/05/15 04:40:25;;;;;;;;;;;;;;;8.67;78.30;99709.69;5086343;28;20344;-76
2022/05/15 04:42:50;;;;;;;;;;;;;;;8.70;78.49;99700.94;5099496;27;19919;-76
2022/05/15 04:45:16;;;;;;;;;;;;;;;8.76;77.80;99705.22;5102118;28;20448;-76
2022/05/15 04:47:42;;;;;;;;;;;;;;;8.83;77.76;99709.53;5097423;28;19920;-77
2022/05/15 04:50:08;;;;;;;;;;;;;;;8.82;77.69;99718.84;5096827;28;19916;-76
2022/05/15 04:52:34;;;;;;;;;;;;;;;8.70;77.86;99717.34;5110029;28;20019;-77
2022/05/15 04:54:59;;;;;;;;;;;;;;;8.72;78.06;99720.59;5112369;28;19920;-77
2022/05/15 04:57:25;;;;;;;;;;;;;;;8.74;78.76;99718.38;5115126;28;19919;-77
2022/05/15 04:59:50;;;;;;;;;;;;;;;8.84;77.69;99719.34;5113363;28;19919;-76
2022/05/15 05:02:15;;;;;;;;;;;;;;;8.94;78.34;99717.31;5098514;28;19943;-77
2022/05/15 05:04:41;;;;;;;;;;;;;;;8.98;77.49;99712.06;5094282;28;19928;-75
2022/05/15 05:07:06;;;;;;;;;;;;;;;9.04;77.97;99716.38;5093173;28;19923;-75
2022/05/15 05:09:32;;;;;;;;;;;;;;;9.10;77.91;99708.91;5107260;28;19920;-75
2022/05/15 05:11:57;;;;;;;;;;;;;;;9.11;77.79;99724.22;5106236;28;19944;-75
2022/05/15 05:14:23;;;;;;;;;;;;;;;9.23;77.09;99717.22;5104053;28;19931;-75
2022/05/15 05:16:48;;;;;;;;;;;;;;;9.35;77.43;99720.31;5103005;28;20351;-76
2022/05/15 05:19:14;;;;;;;;;;;;;;;9.36;76.43;99719.22;5092576;28;19920;-75
2022/05/15 05:21:39;;;;;;;;;;;;;;;9.30;77.54;99720.41;5097333;28;19927;-74
2022/05/15 05:24:05;;;;;;;;;;;;;;;9.43;76.56;99718.03;5094307;28;19920;-74
2022/05/15 05:26:30;;;;;;;;;;;;;;;9.52;76.60;99724.47;5107034;28;20010;-74
2022/05/15 05:28:55;;;;;;;;;;;;;;;9.64;76.81;99713.88;5107611;28;20442;-75
2022/05/15 05:31:21;;;;;;;;;;;;;;;9.67;76.75;99726.97;5095887;27;19920;-76
2022/05/15 05:33:47;;;;;;;;;;;;;;;9.68;76.27;99718.47;5098969;28;19936;-75
2022/05/15 05:36:13;;;;;;;;;;;;;;;9.68;76.68;99732.16;5109995;28;19966;-74
2022/05/15 05:38:38;;;;;;;;;;;;;;;9.69;75.89;99727.50;5085480;27;19964;-75
2022/05/15 05:41:04;;;;;;;;;;;;;;;9.71;76.56;99725.28;5105117;28;19941;-75
2022/05/15 05:43:29;;;;;;;;;;;;;;;9.70;75.98;99726.38;5107700;28;19919;-75
2022/05/15 05:45:55;;;;;;;;;;;;;;;9.68;76.01;99721.19;5103542;28;19955;-76
2022/05/15 05:48:20;;;;;;;;;;;;;;;9.76;76.56;99725.22;5077437;28;20297;-74
2022/05/15 05:50:46;;;;;;;;;;;;;;;9.83;75.83;99722.91;5112973;28;19981;-74
2022/05/15 05:53:11;;;;;;;;;;;;;;;9.91;76.30;99715.94;5113953;28;20353;-74
2022/05/15 05:55:36;;;;;;;;;;;;;;;9.96;75.82;99727.63;5104807;28;19992;-74
2022/05/15 05:58:02;;;;;;;;;;;;;;;10.02;76.14;99727.53;5092247;28;19920;-74
2022/05/15 06:00:29;;;;;;;;;;;;;;;10.01;75.89;99728.63;5109246;28;19919;-74
2022/05/15 06:04:39;;;;;;;;;;;;;;;10.10;75.32;99724.13;5093356;28;19973;-74
2022/05/15 06:05:40;;;;;;;;;;;;;;;10.04;75.16;99722.56;5093082;28;20385;-74
2022/05/15 06:08:05;;;;;;;;;;;;;;;9.93;75.47;99727.41;5126027;27;19931;-74
2022/05/15 06:10:31;;;;;;;;;;;;;;;9.99;75.26;99737.16;5095849;28;19926;-73
2022/05/15 06:12:57;;;;;;;;;;;;;;;10.03;74.70;99737.38;5108645;28;19981;-74
2022/05/15 06:15:22;;;;;;;;;;;;;;;10.17;75.49;99738.22;5099525;28;19923;-73
2022/05/15 06:17:47;;;;;;;;;;;;;;;10.27;74.86;99740.84;5106882;28;19919;-74
2022/05/15 06:20:13;;;;;;;;;;;;;;;10.25;74.87;99738.41;5092116;28;19927;-74
2022/05/15 06:22:38;;;;;;;;;;;;;;;10.26;75.12;99741.97;5092982;28;19920;-74
2022/05/15 06:25:04;;;;;;;;;;;;;;;10.42;75.07;99740.56;5092049;28;19966;-74
2022/05/15 06:27:29;;;;;;;;;;;;;;;10.54;74.14;99735.38;5092645;28;19947;-74
2022/05/15 06:29:58;;;;;;;;;;;;;;;10.70;73.48;99743.34;5092644;28;20451;-74
2022/05/15 06:32:23;;;;;;;;;;;;;;;10.66;74.11;99745.88;5092974;28;19920;-74
2022/05/15 06:34:49;;;;;;;;;;;;;;;10.68;73.83;99740.91;5092991;28;19919;-74
2022/05/15 06:37:14;;;;;;;;;;;;;;;10.93;73.11;99741.50;5105890;28;19958;-74
2022/05/15 06:39:40;;;;;;;;;;;;;;;11.02;73.78;99747.91;5112952;28;19980;-74
2022/05/15 06:42:05;;;;;;;;;;;;;;;11.14;72.63;99749.03;5112453;28;19926;-74
2022/05/15 06:44:39;;;;;;;;;;;;;;;11.18;72.07;99750.03;5078793;28;20297;-74
2022/05/15 06:47:05;;;;;;;;;;;;;;;11.20;72.29;99755.22;5102239;28;19920;-74
2022/05/15 06:49:30;;;;;;;;;;;;;;;11.13;72.41;99752.91;5092372;28;19938;-74
2022/05/15 06:52:01;;;;;;;;;;;;;;;11.05;72.65;99748.13;5091162;28;19920;-74
2022/05/15 06:54:26;;;;;;;;;;;;;;;10.99;72.16;99754.84;5092672;28;19919;-74
2022/05/15 06:59:36;;;;;;;;;;;;;;;10.97;73.19;99753.53;5092141;28;19920;-74
2022/05/15 07:02:01;;;;;;;;;;;;;;;11.06;72.43;99755.22;5091836;28;19972;-74
2022/05/15 07:04:27;;;;;;;;;;;;;;;11.31;72.60;99750.34;5092199;28;20424;-74
2022/05/15 07:06:52;;;;;;;;;;;;;;;11.70;72.34;99753.28;5097745;28;19992;-74
2022/05/15 07:09:17;;;;;;;;;;;;;;;11.97;70.53;99751.59;5111431;28;19965;-74
2022/05/15 07:11:43;;;;;;;;;;;;;;;12.05;70.18;99753.59;5126917;27;19947;-74
2022/05/15 07:14:09;;;;;;;;;;;;;;;12.16;69.59;99756.94;5114163;27;19923;-74
2022/05/15 07:16:34;;;;;;;;;;;;;;;12.21;69.31;99752.09;5109896;27;20395;-74
2022/05/15 07:19:00;;;;;;;;;;;;;;;12.17;69.42;99762.09;5093317;28;19920;-74
2022/05/15 07:21:25;;;;;;;;;;;;;;;12.25;68.32;99768.78;5091649;28;20274;-74
2022/05/15 07:23:51;;;;;;;;;;;;;;;12.24;68.11;99767.97;5091552;28;20376;-74
2022/05/15 07:26:16;;;;;;;;;;;;;;;12.20;68.17;99760.66;5094172;28;19992;-74
2022/05/15 07:28:42;;;;;;;;;;;;;;;12.16;68.46;99776.19;5091690;28;19919;-74
2022/05/15 07:31:07;;;;;;;;;;;;;;;12.12;67.58;99777.91;5091903;28;19955;-74
2022/05/15 07:33:33;;;;;;;;;;;;;;;12.06;67.83;99782.72;5091709;28;20340;-74
2022/05/15 07:35:58;;;;;;;;;;;;;;;12.08;67.73;99785.97;5091406;28;19953;-74
2022/05/15 07:38:24;;;;;;;;;;;;;;;12.04;67.55;99791.28;5092383;28;20010;-74
2022/05/15 07:40:49;;;;;;;;;;;;;;;11.74;67.61;99786.47;5118210;27;19919;-74
2022/05/15 07:43:14;;;;;;;;;;;;;;;11.51;68.71;99793.03;5132314;27;19919;-74
2022/05/15 07:45:40;;;;;;;;;;;;;;;11.32;68.80;99798.66;5132382;27;20025;-74
2022/05/15 07:48:06;;;;;;;;;;;;;;;11.00;69.79;99794.91;5131613;27;20014;-74
2022/05/15 07:50:32;;;;;;;;;;;;;;;10.79;71.06;99801.91;5111726;28;19919;-74
2022/05/15 07:52:57;;;;;;;;;;;;;;;10.59;71.27;99811.31;5111972;28;19923;-75
2022/05/15 07:55:23;;;;;;;;;;;;;;;10.46;72.47;99817.56;5111454;28;19973;-74
2022/05/15 07:57:48;;;;;;;;;;;;;;;10.38;72.34;99808.09;5111538;28;19920;-75
2022/05/15 08:00:14;;;;;;;;;;;;;;;10.40;73.21;99816.00;5110511;28;19919;-75
2022/05/15 08:02:41;;;;;;;;;;;;;;;10.43;73.25;99823.66;5111628;28;20015;-74
2022/05/15 08:08:00;;;;;;;;;;;;;;;10.33;73.72;99818.34;5095878;28;19934;-74
2022/05/15 08:10:26;;;;;;;;;;;;;;;10.37;73.95;99819.38;5109618;28;19920;-75
2022/05/15 08:12:51;;;;;;;;;;;;;;;10.41;73.67;99821.22;5094180;28;19926;-75
2022/05/15 08:15:17;;;;;;;;;;;;;;;10.36;74.08;99817.75;5091050;28;19946;-75
2022/05/15 08:17:42;;;;;;;;;;;;;;;10.33;74.08;99835.59;5091380;28;19927;-75
2022/05/15 08:25:38;;;;;;;;;;;;;;;10.26;73.95;99835.19;5090921;28;19943;-73
2022/05/15 08:28:03;;;;;;;;;;;;;;;10.26;73.27;99846.97;5090165;28;19980;-72
2022/05/15 08:30:29;;;;;;;;;;;;;;;10.29;73.35;99845.56;5103336;28;20277;-72
2022/05/15 08:32:54;;;;;;;;;;;;;;;10.32;73.87;99850.44;5110076;28;19934;-72
2022/05/15 08:35:20;;;;;;;;;;;;;;;10.33;73.21;99851.25;5091928;28;19946;-72
2022/05/15 08:37:45;;;;;;;;;;;;;;;10.27;73.86;99853.25;5091776;28;20014;-71
2022/05/15 08:40:11;;;;;;;;;;;;;;;10.27;73.27;99858.75;5090629;28;20026;-71
2022/05/15 08:42:56;;;;;;;;;;;;;;;10.33;74.00;99852.06;5110295;28;19926;-73
2022/05/15 08:45:26;;;;;;;;;;;;;;;10.36;73.23;99853.38;5110621;28;19915;-72
2022/05/15 08:48:09;;;;;;;;;;;;;;;10.29;74.00;99859.25;5104061;28;19971;-71
2022/05/15 08:50:50;;;;;;;;;;;;;;;10.25;74.32;99860.97;5090800;28;20368;-71
2022/05/15 08:53:23;;;;;;;;;;;;;;;10.19;74.03;99864.84;5091586;28;19920;-72
2022/05/15 08:55:50;;;;;;;;;;;;;;;10.12;74.80;99867.16;5093217;28;20377;-72
2022/05/15 08:58:16;;;;;;;;;;;;;;;10.02;74.18;99872.78;5111277;28;19923;-72
2022/05/15 09:00:52;;;;;;;;;;;;;;;9.86;75.36;99864.78;5110182;28;20506;-72
2022/05/15 09:03:21;;;;;;;;;;;;;;;9.81;75.14;99878.56;5108422;28;19938;-72
2022/05/15 09:06:05;;;;;;;;;;;;;;;9.75;75.73;99879.75;5094582;28;19922;-72
2022/05/15 09:08:33;;;;;;;;;;;;;;;9.58;75.43;99879.41;5107549;28;19920;-72
2022/05/15 09:11:09;;;;;;;;;;;;;;;9.47;76.50;99872.44;5104455;28;20481;-72
2022/05/15 09:13:42;;;;;;;;;;;;;;;9.40;76.64;99877.44;5093246;28;19919;-72
2022/05/15 09:16:13;;;;;;;;;;;;;;;9.40;75.72;99882.94;5098818;28;19916;-72
2022/05/15 09:18:40;;;;;;;;;;;;;;;9.37;75.49;99876.09;5100454;28;19928;-72
2022/05/15 09:21:05;;;;;;;;;;;;;;;9.39;76.31;99875.81;5093947;28;19920;-72
2022/05/15 09:23:34;;;;;;;;;;;;;;;9.36;75.48;99882.66;5107299;28;20443;-72
2022/05/15 09:26:01;;;;;;;;;;;;;;;9.35;75.13;99879.13;5101467;28;19934;-73
2022/05/15 09:28:27;;;;;;;;;;;;;;;9.35;74.91;99887.34;5094449;28;20006;-72
2022/05/15 09:30:54;;;;;;;;;;;;;;;9.37;74.64;99895.25;5108099;27;19920;-72
2022/05/15 09:33:23;;;;;;;;;;;;;;;9.30;74.71;99894.81;5101446;28;19958;-72
2022/05/15 09:35:48;;;;;;;;;;;;;;;9.27;74.86;99900.88;5101896;28;20509;-72
2022/05/15 09:38:31;;;;;;;;;;;;;;;9.24;74.81;99907.75;5112793;28;20022;-72
2022/05/15 09:43:55;;;;;;;;;;;;;;;9.38;74.06;99918.00;5094591;28;20275;-72
2022/05/15 09:46:22;;;;;;;;;;;;;;;9.36;74.81;99921.00;5106665;28;19926;-72
2022/05/15 09:48:58;;;;;;;;;;;;;;;9.37;74.40;99925.38;5113937;28;19920;-72
2022/05/15 09:51:40;;;;;;;;;;;;;;;9.29;73.71;99926.84;5112645;28;19919;-72
2022/05/15 09:54:06;;;;;;;;;;;;;;;9.32;73.83;99920.78;5112636;28;20010;-72
2022/05/15 09:56:32;;;;;;;;;;;;;;;9.31;73.32;99924.63;5111582;28;19986;-72
2022/05/15 09:59:13;;;;;;;;;;;;;;;9.40;72.71;99921.25;5112251;28;19920;-72
2022/05/15 10:01:48;;;;;;;;;;;;;;;9.41;72.48;99925.63;5109267;28;20405;-72
2022/05/15 10:04:24;;;;;;;;;;;;;;;9.40;73.43;99926.75;5093271;28;20004;-72
2022/05/15 10:06:57;;;;;;;;;;;;;;;9.50;72.52;99921.13;5112905;27;19955;-72
2022/05/15 10:09:26;;;;;;;;;;;;;;;9.50;71.60;99926.59;5093086;28;20852;-74
2022/05/15 10:11:53;;;;;;;;;;;;;;;9.40;71.74;99929.47;5093157;28;20026;-73
2022/05/15 10:14:27;;;;;;;;;;;;;;;9.36;71.79;99926.47;5091837;28;19923;-73
2022/05/15 10:16:54;;;;;;;;;;;;;;;9.26;71.71;99932.91;5094416;28;19942;-74
2022/05/15 10:19:41;;;;;;;;;;;;;;;9.25;72.37;99934.00;5102237;28;20361;-74
2022/05/15 10:22:27;;;;;;;;;;;;;;;9.28;72.49;99932.59;5103023;28;20081;-74
2022/05/15 10:24:52;;;;;;;;;;;;;;;9.29;72.55;99946.00;5091339;28;20010;-74
2022/05/15 10:27:22;;;;;;;;;;;;;;;9.35;71.52;99946.75;5074334;28;20066;-74
2022/05/15 10:29:47;;;;;;;;;;;;;;;9.35;71.53;99953.03;5092624;28;20409;-74
2022/05/15 10:32:15;;;;;;;;;;;;;;;9.28;71.71;99963.53;5092736;28;19920;-74
2022/05/15 10:34:41;;;;;;;;;;;;;;;9.24;72.19;99962.50;5093781;27;20012;-73
2022/05/15 10:37:22;;;;;;;;;;;;;;;9.24;72.10;99959.75;5111343;27;19984;-73
2022/05/15 10:39:56;;;;;;;;;;;;;;;9.28;72.23;99955.31;5092656;28;19988;-73
2022/05/15 10:42:22;;;;;;;;;;;;;;;9.35;72.14;99957.72;5092756;28;20380;-73
2022/05/15 10:45:05;;;;;;;;;;;;;;;9.40;70.88;99962.34;5103313;28;19970;-73
2022/05/15 10:47:32;;;;;;;;;;;;;;;9.42;70.85;99951.91;5093789;28;19920;-73
2022/05/15 10:50:01;;;;;;;;;;;;;;;9.42;69.88;99969.16;5111252;28;20408;-73
2022/05/15 10:52:26;;;;;;;;;;;;;;;9.55;70.28;99956.69;5108701;28;20374;-74
2022/05/15 10:57:39;;;;;;;;;;;;;;;9.88;68.07;99954.91;5112871;28;19923;-74
2022/05/15 11:00:07;;;;;;;;;;;;;;;9.90;68.25;99963.69;5112560;28;19945;-74
2022/05/15 11:02:51;;;;;;;;;;;;;;;9.83;67.70;99955.78;5112419;28;19920;-74
2022/05/15 11:05:20;;;;;;;;;;;;;;;9.72;66.75;99967.16;5111082;28;19926;-73
2022/05/15 11:07:48;;;;;;;;;;;;;;;9.58;67.48;99964.34;5112389;28;19919;-73
2022/05/15 11:10:18;;;;;;;;;;;;;;;9.53;68.04;99965.19;5112160;28;19926;-74
2022/05/15 11:13:01;;;;;;;;;;;;;;;9.49;68.89;99975.09;5112230;28;19924;-74
2022/05/15 11:15:27;;;;;;;;;;;;;;;9.46;70.34;99975.69;5093750;28;19919;-74
2022/05/15 11:18:02;;;;;;;;;;;;;;;9.45;69.69;99979.53;5109343;28;20018;-73
2022/05/15 11:20:34;;;;;;;;;;;;;;;9.43;70.92;99978.19;5107323;28;19920;-73
2022/05/15 11:23:20;;;;;;;;;;;;;;;9.48;70.89;99975.38;5090007;28;19919;-73
2022/05/15 11:26:08;;;;;;;;;;;;;;;9.52;70.94;99982.72;5092824;28;19997;-74
2022/05/15 11:28:37;;;;;;;;;;;;;;;9.52;71.10;99979.16;5102809;27;20021;-74
2022/05/15 11:31:09;;;;;;;;;;;;;;;9.47;70.77;99982.78;5110517;28;19926;-73
2022/05/15 11:33:44;;;;;;;;;;;;;;;9.41;70.96;99983.13;5110765;28;19967;-74
2022/05/15 11:36:21;;;;;;;;;;;;;;;9.41;70.90;99978.47;5111863;28;19919;-73
2022/05/15 11:38:48;;;;;;;;;;;;;;;9.49;70.11;99979.75;5106374;28;19926;-73
2022/05/15 11:41:30;;;;;;;;;;;;;;;9.59;71.13;99994.16;5090306;28;19926;-73
2022/05/15 11:43:57;;;;;;;;;;;;;;;9.76;70.91;99970.97;5108290;28;20407;-73
2022/05/15 11:46:22;;;;;;;;;;;;;;;9.89;70.19;99973.84;5110383;28;19920;-74
2022/05/15 11:48:52;;;;;;;;;;;;;;;10.04;70.28;99974.72;5110327;28;20328;-73
2022/05/15 11:51:26;;;;;;;;;;;;;;;10.11;69.67;99981.50;5110342;28;19926;-73
2022/05/15 11:54:05;;;;;;;;;;;;;;;10.12;69.02;99982.31;5112017;28;19926;-73
2022/05/15 11:56:30;;;;;;;;;;;;;;;10.12;68.52;99976.81;5110451;28;19919;-73
2022/05/15 11:58:57;;;;;;;;;;;;;;;10.06;68.34;99983.47;5105504;28;19964;-73
2022/05/15 12:01:25;;;;;;;;;;;;;;;9.97;67.69;99981.38;5111679;28;19919;-73
2022/05/15 12:03:52;;;;;;;;;;;;;;;9.96;67.92;99981.69;5111758;28;20018;-73
2022/05/15 12:06:19;;;;;;;;;;;;;;;9.92;67.89;99988.88;5110445;28;19920;-74
2022/05/15 12:08:49;;;;;;;;;;;;;;;9.84;67.35;99989.50;5111459;28;19972;-73
2022/05/15 12:11:14;;;;;;;;;;;;;;;9.85;66.82;100000.16;5111528;28;20010;-73
2022/05/15 12:13:40;;;;;;;;;;;;;;;9.86;68.01;99999.06;5111373;28;20023;-73
2022/05/15 12:16:12;;;;;;;;;;;;;;;9.92;67.76;100006.13;5111301;28;19926;-73
2022/05/15 12:18:39;;;;;;;;;;;;;;;9.89;68.25;100009.47;5111664;28;19919;-73
2022/05/15 12:21:05;;;;;;;;;;;;;;;9.83;68.26;100016.09;5110988;28;19919;-73
2022/05/15 12:23:32;;;;;;;;;;;;;;;9.79;69.08;100012.31;5100969;28;20405;-74
2022/05/15 12:26:07;;;;;;;;;;;;;;;9.80;69.56;100002.97;5111195;28;19927;-74
2022/05/15 12:28:51;;;;;;;;;;;;;;;9.82;70.02;99999.94;5094704;28;20407;-75
2022/05/15 12:31:18;;;;;;;;;;;;;;;9.79;70.25;100011.47;5072716;28;20022;-72
2022/05/15 12:33:43;;;;;;;;;;;;;;;9.75;69.45;100016.75;5090912;28;19927;-73
2022/05/15 12:36:10;;;;;;;;;;;;;;;9.75;70.17;100005.78;5090716;28;19920;-73
2022/05/15 12:38:35;;;;;;;;;;;;;;;9.79;70.62;100015.03;5090870;28;19920;-73
2022/05/15 12:41:07;;;;;;;;;;;;;;;9.84;70.19;100008.69;5093173;28;19985;-74
2022/05/15 12:43:34;;;;;;;;;;;;;;;9.88;70.13;100016.00;5098898;28;19920;-74
2022/05/15 12:46:00;;;;;;;;;;;;;;;9.90;68.92;100013.81;5108999;28;19920;-73
2022/05/15 12:48:26;;;;;;;;;;;;;;;9.93;69.73;100013.25;5115235;28;20071;-74
2022/05/15 12:50:52;;;;;;;;;;;;;;;9.94;69.35;100020.34;5114848;28;19920;-74
2022/05/15 12:53:19;;;;;;;;;;;;;;;9.95;69.60;100021.97;5113508;28;19926;-74
2022/05/15 12:55:44;;;;;;;;;;;;;;;9.94;68.47;100003.91;5114076;28;20029;-74
2022/05/15 12:58:10;;;;;;;;;;;;;;;9.95;68.90;100000.06;5113932;28;20588;-74
2022/05/15 13:00:37;;;;;;;;;;;;;;;10.04;68.89;100013.91;5111236;28;19951;-74
2022/05/15 13:03:11;;;;;;;;;;;;;;;10.12;68.08;100012.47;5112199;28;20023;-74
2022/05/15 13:05:56;;;;;;;;;;;;;;;10.18;66.83;100016.75;5094852;28;20370;-74
2022/05/15 13:08:23;;;;;;;;;;;;;;;10.24;67.14;100027.41;5097907;28;19927;-74
2022/05/15 13:10:51;;;;;;;;;;;;;;;10.29;67.01;100028.47;5094303;28;19981;-74
2022/05/15 13:13:22;;;;;;;;;;;;;;;10.25;67.08;100039.22;5093918;28;20026;-74
2022/05/15 13:15:48;;;;;;;;;;;;;;;10.18;68.17;100050.47;5094111;28;19916;-74